Atlantic Jupiter — VREY5 — position and weather

sailwx.info

Track history (hours):
 
Tides and Currents Weather Stations Pressure Air Temp Water Temp Dewpoint Dewpoint Depression Visibility Wind Speed Wind Dir Waves Ship Positions

Atlantic Jupiter

Last reported at 2017-Nov-15 20:11 UTC. Time now 2017-Nov-22 02:05 UTC.
Position N 36°11' E 014°44'.

Length 184 m; draft 10 m.

Type: Ship. MMSI: 477201400.

Date/timePositionNaut miles runAvg speedWind from/ knotsBaromVisibWave heightAir tempDewpointWater temp
2017-Nov-15 20:11N 36°11' E 014°44'212.2
2017-Nov-15 20:00N 36°12' E 014°41'612.3
2017-Nov-15 19:30N 36°14' E 014°34'612.5
2017-Nov-15 19:00N 36°16' E 014°27'612.5
2017-Nov-15 18:30N 36°18' E 014°20'612.4
2017-Nov-15 18:00N 36°21' E 014°13'612.4
2017-Nov-15 17:31N 36°23' E 014°06'612.4
2017-Nov-15 17:00N 36°26' E 013°59'612.5
2017-Nov-15 16:30N 36°28' E 013°51'  
2017-Nov-12 13:06N 36°01' W 005°12'216.4
2017-Nov-12 13:01N 36°01' W 005°13'917.0
2017-Nov-12 12:31N 35°58' W 005°23'59211.6
2017-Nov-10 09:26N 29°36' W 014°22'4910.2
2017-Nov-10 04:36N 29°03' W 015°04'8 9.9
2017-Nov-10 03:46N 28°58' W 015°11'5 9.9
2017-Nov-10 03:16N 28°54' W 015°15'310.4
2017-Nov-10 03:00N 28°53' W 015°17'510.1
2017-Nov-10 02:30N 28°49' W 015°22'510.5
2017-Nov-10 02:00N 28°46' W 015°27'510.3
2017-Nov-10 01:30N 28°43' W 015°31'510.2
2017-Nov-10 01:00N 28°39' W 015°35'510.5
2017-Nov-10 00:30N 28°35' W 015°39'510.7
2017-Nov-10 00:00N 28°31' W 015°43'510.5
2017-Nov-09 23:30N 28°27' W 015°47'510.6
2017-Nov-09 23:00N 28°23' W 015°51'510.4
2017-Nov-09 22:30N 28°19' W 015°55'5 9.3
2017-Nov-09 21:57N 28°18' W 016°01'1012.2
2017-Nov-09 21:09N 28°25' W 016°08'311.6
2017-Nov-09 20:51N 28°28' W 016°10'3 6.8
2017-Nov-09 20:28N 28°29' W 016°13'0 0.0
2017-Nov-09 17:00N 28°29' W 016°13'0 0.0
2017-Nov-09 16:30N 28°29' W 016°13'0 0.0
2017-Nov-09 15:51N 28°29' W 016°13'0 0.0
2017-Nov-09 13:39N 28°29' W 016°13'0 0.1
2017-Nov-09 13:29N 28°29' W 016°13'1 1.3
2017-Nov-09 13:00N 28°29' W 016°12'3 5.8
2017-Nov-09 12:29N 28°27' W 016°10'3 5.6
2017-Nov-09 11:54N 28°26' W 016°06'4 7.4
2017-Nov-09 11:20N 28°24' W 016°02'411.7
2017-Nov-09 11:00N 28°22' W 015°58'4 7.1
2017-Nov-09 10:30N 28°18' W 015°57'3511.0
2017-Nov-09 07:18N 27°49' W 016°18'  
Track history (hours):
 
Tides and Currents Weather Stations Pressure Air Temp Water Temp Dewpoint Dewpoint Depression Visibility Wind Speed Wind Dir Waves Ship Positions

Atlantic Jupiter

Last reported at 2017-Nov-15 20:11 UTC. Time now 2017-Nov-22 02:05 UTC.
Position N 36°11' E 014°44'.

Length 184 m; draft 10 m.

Type: Ship. MMSI: 477201400.

Date/timePositionNaut miles runAvg speedWind from/ knotsBaromVisibWave heightAir tempDewpointWater temp
2017-Nov-15 20:11N 36°11' E 014°44'212.2
2017-Nov-15 20:00N 36°12' E 014°41'612.3
2017-Nov-15 19:30N 36°14' E 014°34'612.5
2017-Nov-15 19:00N 36°16' E 014°27'612.5
2017-Nov-15 18:30N 36°18' E 014°20'612.4
2017-Nov-15 18:00N 36°21' E 014°13'612.4
2017-Nov-15 17:31N 36°23' E 014°06'612.4
2017-Nov-15 17:00N 36°26' E 013°59'612.5
2017-Nov-15 16:30N 36°28' E 013°51'  
2017-Nov-12 13:06N 36°01' W 005°12'216.4
2017-Nov-12 13:01N 36°01' W 005°13'917.0
2017-Nov-12 12:31N 35°58' W 005°23'59211.6
2017-Nov-10 09:26N 29°36' W 014°22'4910.2
2017-Nov-10 04:36N 29°03' W 015°04'8 9.9
2017-Nov-10 03:46N 28°58' W 015°11'5 9.9
2017-Nov-10 03:16N 28°54' W 015°15'310.4
2017-Nov-10 03:00N 28°53' W 015°17'510.1
2017-Nov-10 02:30N 28°49' W 015°22'510.5
2017-Nov-10 02:00N 28°46' W 015°27'510.3
2017-Nov-10 01:30N 28°43' W 015°31'510.2
2017-Nov-10 01:00N 28°39' W 015°35'510.5
2017-Nov-10 00:30N 28°35' W 015°39'510.7
2017-Nov-10 00:00N 28°31' W 015°43'510.5
2017-Nov-09 23:30N 28°27' W 015°47'510.6
2017-Nov-09 23:00N 28°23' W 015°51'510.4
2017-Nov-09 22:30N 28°19' W 015°55'5 9.3
2017-Nov-09 21:57N 28°18' W 016°01'1012.2
2017-Nov-09 21:09N 28°25' W 016°08'311.6
2017-Nov-09 20:51N 28°28' W 016°10'3 6.8
2017-Nov-09 20:28N 28°29' W 016°13'0 0.0
2017-Nov-09 17:00N 28°29' W 016°13'0 0.0
2017-Nov-09 16:30N 28°29' W 016°13'0 0.0
2017-Nov-09 15:51N 28°29' W 016°13'0 0.0
2017-Nov-09 13:39N 28°29' W 016°13'0 0.1
2017-Nov-09 13:29N 28°29' W 016°13'1 1.3
2017-Nov-09 13:00N 28°29' W 016°12'3 5.8
2017-Nov-09 12:29N 28°27' W 016°10'3 5.6
2017-Nov-09 11:54N 28°26' W 016°06'4 7.4
2017-Nov-09 11:20N 28°24' W 016°02'411.7
2017-Nov-09 11:00N 28°22' W 015°58'4 7.1
2017-Nov-09 10:30N 28°18' W 015°57'3511.0
2017-Nov-09 07:18N 27°49' W 016°18'  

Dump ship's entire track history